Flight Track Log - Related Links

Times and Time Zones

All times are in EST time to prevent confusion due to time zone crossing. See the N28295 flight status page for this flight to view local times or setup timezone preferences in your user account.

Time Position Orientation Groundspeed Altitude Reporting Facility
EST Latitude Longitude Course Direction KTS MPH feet Rate Location/Type
Fri 03:09:12 PM 39.1000 -76.8000 303° West 105 121 900  Level Potomac TRACON
Fri 03:10:12 PM 39.1167 -76.8333 303° West 102 117 1,800 800 Climbing Potomac TRACON
Fri 03:11:12 PM 39.1333 -76.8500 322° Northwest 103 119 2,500 600 Climbing Potomac TRACON
Fri 03:12:12 PM 39.1500 -76.8833 303° West 109 125 3,000 450 Climbing Potomac TRACON
Fri 03:13:12 PM 39.1833 -76.9167 322° Northwest 125 144 3,400 500 Climbing Potomac TRACON
Fri 03:14:00 PM 39.1683 -76.9491 303° West  Level Estimated
Fri 03:14:12 PM 39.2000 -76.9333 322° Northwest 110 127 4,000  Level Potomac TRACON
Fri 03:15:12 PM 39.2333 -76.9667 322° Northwest 110 127 4,500 550 Climbing Potomac TRACON
Fri 03:16:12 PM 39.2500 -76.9833 322° Northwest 105 121 5,100 550 Climbing Potomac TRACON
Fri 03:17:12 PM 39.2667 -77.0000 322° Northwest 100 115 5,600 397 Climbing Potomac TRACON
Fri 03:18:13 PM 39.2833 -77.0333 303° West 98 113 5,900 397 Climbing Potomac TRACON
Fri 03:19:13 PM 39.3167 -77.0500 339° North 104 120 6,400 400 Climbing Potomac TRACON
Fri 03:20:13 PM 39.3167 -77.0833 270° West 80 92 6,700 350 Climbing Potomac TRACON
Fri 03:21:13 PM 39.3333 -77.1167 303° West 76 87 7,100 350 Climbing Potomac TRACON
Fri 03:22:13 PM 39.3333 -77.1333 270° West 74 85 7,400 300 Climbing Potomac TRACON
Fri 03:23:13 PM 39.3333 -77.1667 270° West 75 86 7,700 300 Climbing Potomac TRACON
Fri 03:24:13 PM 39.3333 -77.2000 270° West 82 94 8,000 200 Climbing Potomac TRACON
Fri 03:25:13 PM 39.3333 -77.2167 270° West 90 104 8,100 -50 Climbing Potomac TRACON
Fri 03:26:13 PM 39.3333 -77.2667 270° West 105 121 7,900 -100 Descending Potomac TRACON
Fri 03:27:13 PM 39.3500 -77.3000 303° West 104 120 7,900  Level Potomac TRACON
Fri 03:28:13 PM 39.3500 -77.3333 270° West 102 117 7,900  Level Potomac TRACON
Fri 03:29:13 PM 39.3500 -77.3667 270° West 99 114 7,900  Level Potomac TRACON
Fri 03:30:13 PM 39.3500 -77.4000 270° West 101 116 7,900  Level Potomac TRACON
Fri 03:31:13 PM 39.3500 -77.4333 270° West 102 117 7,900  Level Potomac TRACON
Fri 03:32:13 PM 39.3667 -77.4833 293° West 103 119 7,900  Level Potomac TRACON
Fri 03:33:13 PM 39.3667 -77.5167 270° West 103 119 7,900  Level Potomac TRACON
Fri 03:34:13 PM 39.3667 -77.5500 270° West 100 115 7,900  Level Potomac TRACON
Fri 03:35:19 PM 39.3667 -77.5833 270° West 97 112 7,900  Level Potomac TRACON
Fri 03:36:20 PM 39.3667 -77.6167 270° West 97 112 7,900  Level Potomac TRACON
Fri 03:37:20 PM 39.3667 -77.6500 270° West 98 113 7,900  Level Potomac TRACON
Fri 03:38:26 PM 39.3833 -77.7000 293° West 98 113 7,900  Level Potomac TRACON
Fri 03:39:26 PM 39.3833 -77.7333 270° West 94 108 7,900  Level Potomac TRACON
Fri 03:40:26 PM 39.3833 -77.7667 270° West 92 106 7,900  Level Potomac TRACON
Fri 03:41:26 PM 39.3833 -77.8000 270° West 88 101 7,900  Level Potomac TRACON
Fri 03:42:26 PM 39.3833 -77.8333 270° West 82 94 7,900  Level Potomac TRACON
Fri 03:43:26 PM 39.3833 -77.8500 270° West 92 106 7,900 -95 Level Potomac TRACON
Fri 03:44:32 PM 39.4167 -77.8833 322° Northwest 101 116 7,700 -333 Descending Potomac TRACON
Fri 03:45:32 PM 39.4333 -77.9167 303° West 122 140 7,200 -476 Descending Potomac TRACON
Fri 03:46:38 PM 39.4500 -77.9500 303° West 122 140 6,700 -567 Descending Potomac TRACON
Fri 03:47:39 PM 39.4667 -78.0000 293° West 123 142 6,000 -347 Descending Potomac TRACON
Fri 03:48:39 PM 39.4833 -78.0333 303° West 116 133 6,000  Level Potomac TRACON
Fri 03:49:39 PM 39.5000 -78.0667 303° West 119 137 6,000  Level Potomac TRACON
Fri 03:50:40 PM 39.5333 -78.1000 322° Northwest 120 138 6,000  Level Potomac TRACON
Fri 03:51:46 PM 39.5500 -78.1333 303° West 122 140 6,000  Level Potomac TRACON
Fri 03:52:46 PM 39.5667 -78.1667 303° West 121 139 6,000  Level Potomac TRACON
Fri 03:53:52 PM 39.5833 -78.2000 303° West 121 139 6,000  Level Potomac TRACON
Fri 03:55:54 PM 39.6283 -78.2731 309° West 120 138 6,000  Level Cleveland Center
Fri 03:56:56 PM 39.6494 -78.3086 308° West 124 143 6,000  Level Cleveland Center
Fri 03:57:58 PM 39.6689 -78.3525 300° West 118 136 6,000  Level Cleveland Center
Fri 03:59:00 PM 39.6789 -78.3922 288° West 117 135 6,000  Level Cleveland Center
Fri 04:00:03 PM 39.6892 -78.4322 288° West 116 133 6,000  Level Cleveland Center
Fri 04:00:29 PM 39.6942 -78.4564 285° West 113 130 6,000  Level Cleveland Center
Fri 04:01:05 PM 39.6989 -78.4703 294° West 113 130 6,000  Level Cleveland Center
Fri 04:01:35 PM 39.7036 -78.4956 284° West 109 125 6,000  Level Cleveland Center
Fri 04:02:07 PM 39.7081 -78.5075 296° West 110 127 6,000  Level Cleveland Center
Fri 04:02:30 PM 39.7133 -78.5319 286° West 110 127 6,000 -97 Level Cleveland Center
Fri 04:03:09 PM 39.7200 -78.5547 291° West 113 130 5,900 -200 Descending Cleveland Center
Fri 04:03:30 PM 39.7231 -78.5686 286° West 113 130 5,800 -484 Descending Cleveland Center
Fri 04:04:11 PM 39.7314 -78.5950 292° West 115 132 5,400 -590 Descending Cleveland Center
Fri 04:04:31 PM 39.7342 -78.6136 281° West 126 145 5,200 -484 Descending Cleveland Center
Fri 04:05:13 PM 39.7411 -78.6397 289° West 124 143 4,900 -393 Descending Cleveland Center
Fri 04:05:32 PM 39.7450 -78.6611 283° West 131 151 4,800 -97 Descending Cleveland Center
Fri 04:06:15 PM 39.7517 -78.6836 291° West 129 148 4,800  Level Cleveland Center
Fri 04:06:32 PM 39.7567 -78.7006 291° West 121 139 4,800  Level Cleveland Center
Fri 04:07:18 PM 39.7628 -78.7239 289° West 124 143 4,800  Level Cleveland Center
Fri 04:07:33 PM 39.7661 -78.7400 285° West 119 137 4,800  Level Cleveland Center
Fri 04:08:20 PM 39.7753 -78.7672 294° West 121 139 4,800  Level Cleveland Center
Fri 04:08:34 PM 39.7775 -78.7794 283° West 118 136 4,800  Level Cleveland Center
Fri 04:09:22 PM 39.7864 -78.8100 291° West 123 142 4,800  Level Cleveland Center
Fri 04:09:34 PM 39.7886 -78.8244 281° West 122 140 4,800  Level Cleveland Center
Fri 04:10:35 PM 39.7978 -78.8667 286° West 119 137 4,800  Level Cleveland Center
Fri 04:11:26 PM 39.8081 -78.8981 293° West 116 133 4,800  Level Cleveland Center
Fri 04:11:35 PM 39.8094 -78.9036 288° West 114 131 4,800  Level Cleveland Center
Fri 04:12:36 PM 39.8189 -78.9428 287° West 118 136 4,800  Level Cleveland Center
Fri 04:13:30 PM 39.8278 -78.9731 291° West 116 133 4,800  Level Cleveland Center
Fri 04:13:37 PM 39.8297 -78.9878 280° West 116 133 4,800  Level Cleveland Center
Fri 04:14:32 PM 39.8397 -79.0208 292° West 116 133 4,800  Level Cleveland Center
Fri 04:14:37 PM 39.8392 -79.0244 259° West 115 132 4,800  Level Cleveland Center
Fri 04:15:34 PM 39.8497 -79.0642 289° West 122 140 4,800  Level Cleveland Center
Fri 04:15:38 PM 39.8506 -79.0669 291° West 120 138 4,800  Level Cleveland Center
Fri 04:16:36 PM 39.8600 -79.1042 288° West 120 138 4,800  Level Cleveland Center
Fri 04:16:38 PM 39.8597 -79.1064 261° West 119 137 4,800  Level Cleveland Center
Fri 04:17:38 PM 39.8708 -79.1436 291° West 117 135 4,800  Level Cleveland Center
Fri 04:17:39 PM 39.8731 -79.1489 299° West 119 137 4,800 -97 Level Cleveland Center
Fri 04:18:40 PM 39.9003 -79.1747 324° Northwest 122 140 4,700 -98 Descending Cleveland Center
Fri 04:19:42 PM 39.9244 -79.1944 328° Northwest 120 138 4,600 -99 Descending Cleveland Center
Fri 04:20:41 PM 39.9550 -79.1961 358° North 124 143 4,500 -95 Descending Cleveland Center
Fri 04:20:45 PM 39.9564 -79.1914 69° East 120 138 4,500 -500 Level Cleveland Center
Fri 04:21:41 PM 39.9686 -79.1597 63° Northeast 101 116 4,000 -484 Descending Cleveland Center
Fri 04:21:47 PM 39.9703 -79.1572 49° Northeast 114 131 4,000 -295 Level Cleveland Center
Fri 04:22:42 PM 39.9814 -79.1317 60° Northeast 83 96 3,700 -290 Descending Cleveland Center
Fri 04:22:49 PM 39.9825 -79.1303 44° Northeast 94 108 3,700 -87 Level Cleveland Center
Fri 04:23:51 PM 39.9933 -79.1017 64° Northeast 89 102 3,600 -158 Descending Cleveland Center
Fri 04:24:43 PM 40.0044 -79.0803 56° Northeast 77 89 3,400 -194 Descending Cleveland Center
Fri 04:24:53 PM 40.0058 -79.0789 37° Northeast 81 93 3,400 -417 Level Cleveland Center
Fri 04:25:55 PM 40.0189 -79.0544 55° Northeast 78 90 2,900 -435 Descending Cleveland Center
Fri 04:26:57 PM 40.0319 -79.0256 59° Northeast 80 92 2,500 -387 Descending Cleveland Center

Login

Don't have an account? Register now (free) for customized features, flight alerts, and more!